Time,TemperatureF,DewpointF,PressureIn,WindDirection,WindDirectionDegrees,WindSpeedMPH,WindSpeedGustMPH,Humidity,HourlyPrecipIn,Conditions,Clouds,dailyrainin,SolarRadiationWatts/m^2,SoftwareType,DateUTC
2013-03-15 00:00:00,37.2,21.2,30.09,WNW,282,1.0,1.0,52,0.00,,,0.00,0,Wunderground v.1.15,2013-03-15 04:00:00,
2013-03-15 00:10:00,37.2,21.2,30.09,NW,314,2.0,2.0,52,0.00,,,0.00,0,Wunderground v.1.15,2013-03-15 04:10:00,
2013-03-15 00:20:00,37.0,21.4,30.09,NW,313,1.0,1.0,53,0.00,,,0.00,0,Wunderground v.1.15,2013-03-15 04:20:00,
2013-03-15 00:30:00,36.8,21.3,30.09,NW,305,0.0,0.0,53,0.00,,,0.00,0,Wunderground v.1.15,2013-03-15 04:30:00,
2013-03-15 00:40:00,36.5,21.4,30.09,North,5,0.0,0.0,54,0.00,,,0.00,0,Wunderground v.1.15,2013-03-15 04:40:00,
2013-03-15 00:50:00,36.4,21.3,30.09,West,259,0.0,1.0,54,0.00,,,0.00,0,Wunderground v.1.15,2013-03-15 04:50:00,
2013-03-15 01:00:00,36.4,21.3,30.09,West,273,1.0,1.0,54,0.00,,,0.00,0,Wunderground v.1.15,2013-03-15 05:00:00,
2013-03-15 01:10:00,36.1,21.0,30.09,West,273,0.0,2.0,54,0.00,,,0.00,0,Wunderground v.1.15,2013-03-15 05:10:00,
2013-03-15 01:20:00,36.1,21.5,30.09,West,261,1.0,1.0,55,0.00,,,0.00,0,Wunderground v.1.15,2013-03-15 05:20:00,
2013-03-15 01:30:00,35.9,21.3,30.08,NNW,333,0.0,0.0,55,0.00,,,0.00,0,Wunderground v.1.15,2013-03-15 05:30:00,
2013-03-15 01:40:00,35.4,21.2,30.08,NNW,333,0.0,0.0,56,0.00,,,0.00,0,Wunderground v.1.15,2013-03-15 05:40:00,
2013-03-15 01:50:00,35.0,21.3,30.08,West,259,0.0,0.0,57,0.00,,,0.00,0,Wunderground v.1.15,2013-03-15 05:50:00,
2013-03-15 02:00:00,35.2,21.5,30.08,WNW,286,0.0,0.0,57,0.00,,,0.00,0,Wunderground v.1.15,2013-03-15 06:00:00,
2013-03-15 02:10:00,35.5,21.8,30.08,WNW,302,1.0,2.0,57,0.00,,,0.00,0,Wunderground v.1.15,2013-03-15 06:10:00,
2013-03-15 02:20:00,35.7,21.9,30.07,West,275,1.0,1.0,57,0.00,,,0.00,0,Wunderground v.1.15,2013-03-15 06:20:00,
2013-03-15 02:30:00,35.7,21.9,30.07,West,271,1.0,1.0,57,0.00,,,0.00,0,Wunderground v.1.15,2013-03-15 06:30:00,
2013-03-15 02:40:00,35.5,21.8,30.07,SW,232,0.0,0.0,57,0.00,,,0.00,0,Wunderground v.1.15,2013-03-15 06:40:00,
2013-03-15 02:50:00,35.5,23.4,30.08,West,259,1.0,1.0,61,0.00,,,0.00,0,Wunderground v.1.15,2013-03-15 06:50:00,
2013-03-15 03:00:00,34.6,21.7,30.08,West,259,0.0,0.0,59,0.00,,,0.00,0,Wunderground v.1.15,2013-03-15 07:00:00,
2013-03-15 03:10:00,35.1,21.8,30.07,WSW,253,0.0,0.0,58,0.00,,,0.00,0,Wunderground v.1.15,2013-03-15 07:10:00,
2013-03-15 03:20:00,34.4,21.5,30.07,WSW,253,0.0,0.0,59,0.00,,,0.00,0,Wunderground v.1.15,2013-03-15 07:20:00,
2013-03-15 03:30:00,33.9,21.5,30.07,WSW,253,0.0,0.0,60,0.00,,,0.00,0,Wunderground v.1.15,2013-03-15 07:30:00,
2013-03-15 03:40:00,33.3,21.7,30.07,WSW,253,0.0,0.0,62,0.00,,,0.00,0,Wunderground v.1.15,2013-03-15 07:40:00,
2013-03-15 03:50:00,33.4,21.4,30.07,WSW,253,0.0,0.0,61,0.00,,,0.00,0,Wunderground v.1.15,2013-03-15 07:50:00,
2013-03-15 04:00:00,33.7,21.7,30.06,WSW,253,0.0,0.0,61,0.00,,,0.00,0,Wunderground v.1.15,2013-03-15 08:00:00,
2013-03-15 04:10:00,34.4,21.9,30.06,WSW,253,0.0,0.0,60,0.00,,,0.00,0,Wunderground v.1.15,2013-03-15 08:10:00,
2013-03-15 04:20:00,34.6,21.7,30.05,WNW,288,0.0,0.0,59,0.00,,,0.00,0,Wunderground v.1.15,2013-03-15 08:20:00,
2013-03-15 04:30:00,34.7,21.8,30.05,WNW,288,0.0,0.0,59,0.00,,,0.00,0,Wunderground v.1.15,2013-03-15 08:30:00,
2013-03-15 04:40:00,34.4,21.9,30.05,WNW,286,0.0,0.0,60,0.00,,,0.00,0,Wunderground v.1.15,2013-03-15 08:40:00,
2013-03-15 04:50:00,33.5,21.5,30.06,WNW,286,0.0,0.0,61,0.00,,,0.00,0,Wunderground v.1.15,2013-03-15 08:50:00,
2013-03-15 05:00:00,32.4,21.2,30.05,WNW,286,0.0,0.0,63,0.00,,,0.00,0,Wunderground v.1.15,2013-03-15 09:00:00,
2013-03-15 05:10:00,32.2,21.0,30.05,WNW,286,0.0,0.0,63,0.00,,,0.00,0,Wunderground v.1.15,2013-03-15 09:10:00,
2013-03-15 05:20:00,32.2,21.4,30.05,WNW,286,0.0,0.0,64,0.00,,,0.00,0,Wunderground v.1.15,2013-03-15 09:20:00,
2013-03-15 05:30:00,30.4,20.4,30.04,WNW,286,0.0,0.0,66,0.00,,,0.00,0,Wunderground v.1.15,2013-03-15 09:30:00,
2013-03-15 05:40:00,29.7,20.8,30.04,WNW,286,0.0,0.0,69,0.00,,,0.00,0,Wunderground v.1.15,2013-03-15 09:40:00,
2013-03-15 05:50:00,30.5,21.2,30.05,WNW,286,0.0,0.0,68,0.00,,,0.00,0,Wunderground v.1.15,2013-03-15 09:50:00,
2013-03-15 06:00:00,30.8,21.1,30.04,WNW,286,0.0,0.0,67,0.00,,,0.00,0,Wunderground v.1.15,2013-03-15 10:00:00,
2013-03-15 06:10:00,31.4,21.3,30.04,WNW,286,0.0,0.0,66,0.00,,,0.00,0,Wunderground v.1.15,2013-03-15 10:10:00,
2013-03-15 06:20:00,31.4,21.3,30.04,WNW,286,0.0,0.0,66,0.00,,,0.00,0,Wunderground v.1.15,2013-03-15 10:20:00,
2013-03-15 06:30:00,31.5,21.4,30.04,WNW,286,0.0,0.0,66,0.00,,,0.00,0,Wunderground v.1.15,2013-03-15 10:30:00,
2013-03-15 06:40:00,32.5,21.7,30.04,WNW,286,0.0,0.0,64,0.00,,,0.00,0,Wunderground v.1.15,2013-03-15 10:40:00,
2013-03-15 06:50:00,32.8,22.0,30.04,SW,221,0.0,0.0,64,0.00,,,0.00,0,Wunderground v.1.15,2013-03-15 10:50:00,
2013-03-15 07:00:00,32.8,21.6,30.04,SW,221,0.0,0.0,63,0.00,,,0.00,0,Wunderground v.1.15,2013-03-15 11:00:00,
2013-03-15 07:10:00,32.8,21.6,30.04,SSW,205,0.0,0.0,63,0.00,,,0.00,0,Wunderground v.1.15,2013-03-15 11:10:00,
2013-03-15 07:20:00,32.8,21.6,30.04,South,190,0.0,0.0,63,0.00,,,0.00,0,Wunderground v.1.15,2013-03-15 11:20:00,
2013-03-15 07:30:00,32.6,21.8,30.03,South,190,0.0,0.0,64,0.00,,,0.00,7,Wunderground v.1.15,2013-03-15 11:30:00,
2013-03-15 07:40:00,33.3,22.1,30.03,South,181,0.0,1.0,63,0.00,,,0.00,19,Wunderground v.1.15,2013-03-15 11:40:00,
2013-03-15 07:50:00,33.9,21.9,30.03,SSE,165,0.0,0.0,61,0.00,,,0.00,23,Wunderground v.1.15,2013-03-15 11:50:00,
2013-03-15 08:00:00,34.0,22.0,30.03,South,183,0.0,0.0,61,0.00,,,0.00,35,Wunderground v.1.15,2013-03-15 12:00:00,
2013-03-15 08:10:00,34.4,22.3,30.03,South,173,0.0,2.0,61,0.00,,,0.00,79,Wunderground v.1.15,2013-03-15 12:10:00,
2013-03-15 08:20:00,35.6,22.7,30.03,SSW,202,0.0,0.0,59,0.00,,,0.00,95,Wunderground v.1.15,2013-03-15 12:20:00,
2013-03-15 08:30:00,36.5,22.7,30.03,SSW,205,0.0,0.0,57,0.00,,,0.00,135,Wunderground v.1.15,2013-03-15 12:30:00,
2013-03-15 08:40:00,36.9,22.7,30.02,SSW,192,1.0,1.0,56,0.00,,,0.00,113,Wunderground v.1.15,2013-03-15 12:40:00,
2013-03-15 08:50:00,37.0,22.7,30.02,SSW,210,1.0,1.0,56,0.00,,,0.00,132,Wunderground v.1.15,2013-03-15 12:50:00,
2013-03-15 09:00:00,37.7,23.0,30.02,SSW,212,0.0,0.0,55,0.00,,,0.00,207,Wunderground v.1.15,2013-03-15 13:00:00,
2013-03-15 09:10:00,39.0,23.7,30.01,South,174,1.0,1.0,54,0.00,,,0.00,276,Wunderground v.1.15,2013-03-15 13:10:00,
2013-03-15 09:20:00,39.9,22.7,30.01,SSW,203,1.0,1.0,50,0.00,,,0.00,392,Wunderground v.1.15,2013-03-15 13:20:00,
2013-03-15 09:30:00,40.0,22.4,30.01,SW,219,2.0,3.0,49,0.00,,,0.00,332,Wunderground v.1.15,2013-03-15 13:30:00,
2013-03-15 09:40:00,41.1,22.4,30.00,South,184,3.0,3.0,47,0.00,,,0.00,399,Wunderground v.1.15,2013-03-15 13:40:00,
2013-03-15 09:50:00,42.0,22.7,30.00,SSW,207,3.0,5.0,46,0.00,,,0.00,452,Wunderground v.1.15,2013-03-15 13:50:00,
2013-03-15 10:00:00,42.2,22.4,29.99,SSW,205,4.0,4.0,45,0.00,,,0.00,445,Wunderground v.1.15,2013-03-15 14:00:00,
2013-03-15 10:10:00,42.9,23.0,29.98,South,186,3.0,4.0,45,0.00,,,0.00,476,Wunderground v.1.15,2013-03-15 14:10:00,
2013-03-15 10:20:00,42.0,22.2,29.97,SSW,205,2.0,2.0,45,0.00,,,0.00,438,Wunderground v.1.15,2013-03-15 14:20:00,
2013-03-15 10:30:00,43.3,22.8,29.97,South,187,3.0,3.0,44,0.00,,,0.00,392,Wunderground v.1.15,2013-03-15 14:30:00,
2013-03-15 10:40:00,43.1,22.6,29.97,SSW,212,3.0,3.0,44,0.00,,,0.00,476,Wunderground v.1.15,2013-03-15 14:40:00,
2013-03-15 10:50:00,43.3,23.4,29.96,WSW,238,3.0,7.0,45,0.00,,,0.00,483,Wunderground v.1.15,2013-03-15 14:50:00,
2013-03-15 11:00:00,44.8,24.2,29.95,SW,225,3.0,3.0,44,0.00,,,0.00,519,Wunderground v.1.15,2013-03-15 15:00:00,
2013-03-15 11:10:00,45.5,25.4,29.95,SW,215,2.0,2.0,45,0.00,,,0.00,628,Wunderground v.1.15,2013-03-15 15:10:00,
2013-03-15 11:20:00,46.5,24.6,29.95,SW,227,2.0,5.0,42,0.00,,,0.00,721,Wunderground v.1.15,2013-03-15 15:20:00,
2013-03-15 11:30:00,47.4,24.9,29.94,SW,221,3.0,5.0,41,0.00,,,0.00,824,Wunderground v.1.15,2013-03-15 15:30:00,
2013-03-15 11:40:00,47.4,24.3,29.94,SW,221,4.0,6.0,40,0.00,,,0.00,712,Wunderground v.1.15,2013-03-15 15:40:00,
2013-03-15 11:50:00,47.5,24.3,29.93,SW,215,4.0,4.0,40,0.00,,,0.00,707,Wunderground v.1.15,2013-03-15 15:50:00,
2013-03-15 12:00:00,47.6,25.6,29.92,South,178,4.0,4.0,42,0.00,,,0.00,708,Wunderground v.1.15,2013-03-15 16:00:00,
2013-03-15 12:10:00,48.3,25.7,29.91,SW,227,4.0,6.0,41,0.00,,,0.00,719,Wunderground v.1.15,2013-03-15 16:10:00,
2013-03-15 12:20:00,49.0,26.9,29.91,SSW,193,3.0,3.0,42,0.00,,,0.00,722,Wunderground v.1.15,2013-03-15 16:20:00,
2013-03-15 12:30:00,48.8,25.5,29.91,South,187,4.0,5.0,40,0.00,,,0.00,754,Wunderground v.1.15,2013-03-15 16:30:00,
2013-03-15 12:40:00,49.9,27.1,29.91,South,188,4.0,4.0,41,0.00,,,0.00,856,Wunderground v.1.15,2013-03-15 16:40:00,
2013-03-15 12:50:00,49.7,25.7,29.90,SSW,207,3.0,3.0,39,0.00,,,0.00,227,Wunderground v.1.15,2013-03-15 16:50:00,
2013-03-15 13:00:00,49.1,26.4,29.90,SSW,194,4.0,4.0,41,0.00,,,0.00,260,Wunderground v.1.15,2013-03-15 17:00:00,
2013-03-15 13:10:00,49.0,26.9,29.89,SSE,167,3.0,3.0,42,0.00,,,0.00,209,Wunderground v.1.15,2013-03-15 17:10:00,
2013-03-15 13:20:00,51.3,29.5,29.89,SW,218,3.0,6.0,43,0.00,,,0.00,211,Wunderground v.1.15,2013-03-15 17:20:00,
2013-03-15 13:30:00,52.8,29.7,29.88,WSW,254,6.0,6.0,41,0.00,,,0.00,195,Wunderground v.1.15,2013-03-15 17:30:00,
2013-03-15 13:40:00,53.9,31.9,29.88,WSW,258,8.0,8.0,43,0.00,,,0.00,200,Wunderground v.1.15,2013-03-15 17:40:00,
2013-03-15 13:50:00,54.6,31.3,29.86,SW,220,7.0,12.0,41,0.00,,,0.00,209,Wunderground v.1.15,2013-03-15 17:50:00,
2013-03-15 14:00:00,54.0,30.2,29.86,West,269,8.0,8.0,40,0.00,,,0.00,179,Wunderground v.1.15,2013-03-15 18:00:00,
2013-03-15 14:10:00,52.7,30.8,29.85,WSW,240,5.0,5.0,43,0.00,,,0.00,139,Wunderground v.1.15,2013-03-15 18:10:00,
2013-03-15 14:20:00,52.3,30.4,29.85,SW,232,4.0,4.0,43,0.00,,,0.00,141,Wunderground v.1.15,2013-03-15 18:20:00,
2013-03-15 14:30:00,52.6,32.4,29.84,West,263,3.0,3.0,46,0.00,,,0.00,172,Wunderground v.1.15,2013-03-15 18:30:00,
2013-03-15 14:40:00,52.9,33.2,29.83,WSW,244,4.0,4.0,47,0.00,,,0.00,213,Wunderground v.1.15,2013-03-15 18:40:00,
2013-03-15 14:50:00,53.7,31.7,29.83,WSW,250,4.0,5.0,43,0.00,,,0.00,255,Wunderground v.1.15,2013-03-15 18:50:00,
2013-03-15 15:00:00,53.8,32.4,29.82,SSW,203,5.0,5.0,44,0.00,,,0.00,227,Wunderground v.1.15,2013-03-15 19:00:00,
2013-03-15 15:10:00,53.8,33.5,29.81,SW,217,3.0,3.0,46,0.00,,,0.00,181,Wunderground v.1.15,2013-03-15 19:10:00,
2013-03-15 15:20:00,53.7,32.8,29.81,SSW,198,3.0,4.0,45,0.00,,,0.00,135,Wunderground v.1.15,2013-03-15 19:20:00,
2013-03-15 15:30:00,53.7,33.9,29.81,WSW,250,2.0,2.0,47,0.00,,,0.00,149,Wunderground v.1.15,2013-03-15 19:30:00,
2013-03-15 15:40:00,54.5,34.7,29.80,SW,227,5.0,6.0,47,0.00,,,0.00,193,Wunderground v.1.15,2013-03-15 19:40:00,
2013-03-15 15:50:00,56.6,36.0,29.79,WSW,238,4.0,6.0,46,0.00,,,0.00,397,Wunderground v.1.15,2013-03-15 19:50:00,
2013-03-15 16:00:00,57.2,36.0,29.79,WSW,254,7.0,7.0,45,0.00,,,0.00,338,Wunderground v.1.15,2013-03-15 20:00:00,
2013-03-15 16:10:00,56.7,35.6,29.79,SW,217,6.0,7.0,45,0.00,,,0.00,250,Wunderground v.1.15,2013-03-15 20:10:00,
2013-03-15 16:20:00,56.5,35.4,29.79,West,260,5.0,5.0,45,0.00,,,0.00,223,Wunderground v.1.15,2013-03-15 20:20:00,
2013-03-15 16:30:00,57.0,36.4,29.78,West,259,5.0,7.0,46,0.00,,,0.00,281,Wunderground v.1.15,2013-03-15 20:30:00,
2013-03-15 16:40:00,57.1,36.5,29.78,West,266,6.0,7.0,46,0.00,,,0.00,239,Wunderground v.1.15,2013-03-15 20:40:00,
2013-03-15 16:50:00,56.7,36.1,29.78,WSW,253,6.0,6.0,46,0.00,,,0.00,204,Wunderground v.1.15,2013-03-15 20:50:00,
2013-03-15 17:00:00,56.7,36.7,29.77,West,261,6.0,6.0,47,0.00,,,0.00,172,Wunderground v.1.15,2013-03-15 21:00:00,
2013-03-15 17:10:00,56.6,36.6,29.77,WSW,257,6.0,6.0,47,0.00,,,0.00,165,Wunderground v.1.15,2013-03-15 21:10:00,
2013-03-15 17:20:00,56.6,36.6,29.77,WSW,253,6.0,6.0,47,0.00,,,0.00,149,Wunderground v.1.15,2013-03-15 21:20:00,
2013-03-15 17:30:00,56.6,37.1,29.76,WSW,257,5.0,5.0,48,0.00,,,0.00,149,Wunderground v.1.15,2013-03-15 21:30:00,
2013-03-15 17:40:00,56.8,36.8,29.76,WSW,244,5.0,6.0,47,0.00,,,0.00,142,Wunderground v.1.15,2013-03-15 21:40:00,
2013-03-15 17:50:00,56.8,36.8,29.76,SW,227,5.0,5.0,47,0.00,,,0.00,132,Wunderground v.1.15,2013-03-15 21:50:00,
2013-03-15 18:00:00,56.8,36.2,29.76,WSW,254,6.0,6.0,46,0.00,,,0.00,97,Wunderground v.1.15,2013-03-15 22:00:00,
2013-03-15 18:10:00,56.6,36.0,29.76,WSW,237,6.0,6.0,46,0.00,,,0.00,83,Wunderground v.1.15,2013-03-15 22:10:00,
2013-03-15 18:20:00,56.4,35.9,29.76,WSW,257,4.0,6.0,46,0.00,,,0.00,76,Wunderground v.1.15,2013-03-15 22:20:00,
2013-03-15 18:30:00,56.3,35.8,29.77,WSW,247,5.0,5.0,46,0.00,,,0.00,56,Wunderground v.1.15,2013-03-15 22:30:00,
2013-03-15 18:40:00,56.0,35.5,29.77,WSW,254,5.0,5.0,46,0.00,,,0.00,37,Wunderground v.1.15,2013-03-15 22:40:00,
2013-03-15 18:50:00,55.3,35.4,29.77,SW,231,2.0,3.0,47,0.00,,,0.00,26,Wunderground v.1.15,2013-03-15 22:50:00,
2013-03-15 19:00:00,55.2,35.3,29.78,West,263,4.0,4.0,47,0.00,,,0.00,14,Wunderground v.1.15,2013-03-15 23:00:00,
2013-03-15 19:10:00,55.0,35.1,29.78,SW,236,4.0,9.0,47,0.00,,,0.00,7,Wunderground v.1.15,2013-03-15 23:10:00,
2013-03-15 19:20:00,54.7,35.4,29.78,WSW,238,5.0,5.0,48,0.00,,,0.00,0,Wunderground v.1.15,2013-03-15 23:20:00,
2013-03-15 19:30:00,54.4,35.1,29.78,WSW,242,4.0,4.0,48,0.00,,,0.00,0,Wunderground v.1.15,2013-03-15 23:30:00,
2013-03-15 19:40:00,54.0,34.7,29.79,SW,236,4.0,4.0,48,0.00,,,0.00,0,Wunderground v.1.15,2013-03-15 23:40:00,
2013-03-15 19:50:00,53.5,34.8,29.79,WSW,237,2.0,3.0,49,0.00,,,0.00,0,Wunderground v.1.15,2013-03-15 23:50:00,
2013-03-15 20:00:00,52.9,34.8,29.79,SW,236,2.0,2.0,50,0.00,,,0.00,0,Wunderground v.1.15,2013-03-16 00:00:00,
2013-03-15 20:10:00,52.7,34.6,29.78,WSW,245,2.0,3.0,50,0.00,,,0.00,0,Wunderground v.1.15,2013-03-16 00:10:00,
2013-03-15 20:20:00,52.6,35.0,29.79,SW,232,3.0,3.0,51,0.00,,,0.00,0,Wunderground v.1.15,2013-03-16 00:20:00,
2013-03-15 20:30:00,52.6,35.0,29.80,WSW,244,3.0,3.0,51,0.00,,,0.00,0,Wunderground v.1.15,2013-03-16 00:30:00,
2013-03-15 20:40:00,52.7,35.1,29.80,West,261,3.0,3.0,51,0.00,,,0.00,0,Wunderground v.1.15,2013-03-16 00:40:00,
2013-03-15 20:50:00,52.5,34.9,29.80,WSW,256,2.0,2.0,51,0.00,,,0.00,0,Wunderground v.1.15,2013-03-16 00:50:00,
2013-03-15 21:00:00,52.4,34.8,29.80,West,259,3.0,3.0,51,0.00,,,0.00,0,Wunderground v.1.15,2013-03-16 01:00:00,
2013-03-15 21:10:00,52.5,34.9,29.80,SW,235,3.0,5.0,51,0.00,,,0.00,0,Wunderground v.1.15,2013-03-16 01:10:00,
2013-03-15 21:20:00,51.9,34.8,29.80,WSW,238,1.0,1.0,52,0.00,,,0.00,0,Wunderground v.1.15,2013-03-16 01:20:00,
2013-03-15 21:30:00,51.7,34.6,29.80,WSW,240,1.0,1.0,52,0.00,,,0.00,0,Wunderground v.1.15,2013-03-16 01:30:00,
2013-03-15 21:40:00,51.1,34.5,29.80,WSW,240,0.0,0.0,53,0.00,,,0.00,0,Wunderground v.1.15,2013-03-16 01:40:00,
2013-03-15 21:50:00,50.5,34.5,29.80,WSW,240,0.0,0.0,54,0.00,,,0.00,0,Wunderground v.1.15,2013-03-16 01:50:00,
2013-03-15 22:00:00,50.3,34.7,29.79,WSW,240,0.0,0.0,55,0.00,,,0.00,0,Wunderground v.1.15,2013-03-16 02:00:00,
2013-03-15 22:10:00,50.2,34.6,29.80,WSW,240,0.0,0.0,55,0.00,,,0.00,0,Wunderground v.1.15,2013-03-16 02:10:00,
2013-03-15 22:20:00,49.7,34.6,29.80,WSW,240,0.0,0.0,56,0.00,,,0.00,0,Wunderground v.1.15,2013-03-16 02:20:00,
2013-03-15 22:30:00,49.3,34.3,29.80,WSW,240,0.0,0.0,56,0.00,,,0.00,0,Wunderground v.1.15,2013-03-16 02:30:00,
2013-03-15 22:40:00,49.4,34.3,29.79,WSW,240,0.0,0.0,56,0.00,,,0.00,0,Wunderground v.1.15,2013-03-16 02:40:00,
2013-03-15 22:50:00,48.5,34.4,29.79,WSW,240,0.0,0.0,58,0.00,,,0.00,0,Wunderground v.1.15,2013-03-16 02:50:00,
2013-03-15 23:00:00,48.7,34.6,29.79,WSW,240,0.0,0.0,58,0.00,,,0.00,0,Wunderground v.1.15,2013-03-16 03:00:00,
2013-03-15 23:10:00,47.3,34.1,29.79,WSW,240,0.0,0.0,60,0.00,,,0.00,0,Wunderground v.1.15,2013-03-16 03:10:00,
2013-03-15 23:20:00,47.0,34.2,29.79,WSW,240,0.0,0.0,61,0.00,,,0.00,0,Wunderground v.1.15,2013-03-16 03:20:00,
2013-03-15 23:30:00,47.2,34.4,29.79,WSW,240,0.0,0.0,61,0.00,,,0.00,0,Wunderground v.1.15,2013-03-16 03:30:00,
2013-03-15 23:40:00,47.5,34.3,29.79,WSW,240,0.0,0.0,60,0.00,,,0.00,0,Wunderground v.1.15,2013-03-16 03:40:00,
2013-03-15 23:50:00,47.3,34.1,29.79,WSW,240,0.0,0.0,60,0.00,,,0.00,0,Wunderground v.1.15,2013-03-16 03:50:00,